createdAt,value
2022-11-20T00:02:11.797Z,19.45
2022-11-20T00:07:13.589Z,22.67
2022-11-20T00:12:15.364Z,24.25
2022-11-20T00:17:17.050Z,18.88
2022-11-20T00:27:20.511Z,21.40
2022-11-20T00:32:22.183Z,25.80
2022-11-20T00:42:25.359Z,24.73
2022-11-20T00:47:27.571Z,24.42
2022-11-20T00:52:29.238Z,16.90
2022-11-20T00:57:30.993Z,16.17
2022-11-20T01:02:32.771Z,23.50
2022-11-20T01:07:34.599Z,19.52
2022-11-20T01:12:36.469Z,20.83
2022-11-20T01:17:38.088Z,19.77
2022-11-20T01:27:42.004Z,19.23
2022-11-20T01:37:45.188Z,19.20
2022-11-20T01:43:13.464Z,20.40
2022-11-20T01:48:15.831Z,18.42
2022-11-20T01:53:20.011Z,23.58
2022-11-20T01:58:24.591Z,23.25
2022-11-20T02:03:27.282Z,20.50
2022-11-20T02:08:29.349Z,17.17
2022-11-20T02:13:46.398Z,17.50
2022-11-20T02:18:48.558Z,14.25
2022-11-20T02:24:08.823Z,21.65
2022-11-20T02:29:10.837Z,16.85
2022-11-20T02:34:12.594Z,15.52
2022-11-20T02:39:14.601Z,18.45
2022-11-20T02:44:16.351Z,18.60
2022-11-20T02:49:18.212Z,20.90
2022-11-20T02:54:19.946Z,25.10
2022-11-20T03:04:23.703Z,26.10
2022-11-20T03:14:27.104Z,22.55
2022-11-20T03:19:28.923Z,25.17
2022-11-20T03:29:32.221Z,22.75
2022-11-20T03:34:33.895Z,17.65
2022-11-20T03:44:37.141Z,17.88
2022-11-20T03:49:38.791Z,15.68
2022-11-20T03:54:40.489Z,21.13
2022-11-20T03:59:42.155Z,19.35
2022-11-20T04:09:45.366Z,22.38
2022-11-20T04:14:47.228Z,18.00
2022-11-20T04:19:51.411Z,17.65
2022-11-20T04:24:53.109Z,21.35
2022-11-20T04:29:55.091Z,15.60
2022-11-20T04:34:56.769Z,17.20
2022-11-20T04:39:58.547Z,17.45
2022-11-20T04:45:00.206Z,19.65
2022-11-20T04:50:01.925Z,17.73
2022-11-20T04:55:04.179Z,15.88
2022-11-20T05:00:06.558Z,20.35
2022-11-20T05:05:08.763Z,16.10
2022-11-20T05:10:10.421Z,22.58
2022-11-20T05:20:13.948Z,25.42
2022-11-20T05:25:15.728Z,20.42
2022-11-20T05:30:17.520Z,19.35
2022-11-20T05:35:19.181Z,17.70
2022-11-20T05:40:20.836Z,13.60
2022-11-20T05:45:22.533Z,14.23
2022-11-20T05:55:25.805Z,11.75
2022-11-20T06:00:27.486Z,12.95
2022-11-20T06:05:29.289Z,11.75
2022-11-20T06:15:32.543Z,11.93
2022-11-20T06:20:39.246Z,11.35
2022-11-20T06:25:43.992Z,10.70
2022-11-20T06:30:46.237Z,13.50
2022-11-20T06:35:48.193Z,12.15
2022-11-20T06:45:54.929Z,7.60
2022-11-20T06:50:57.301Z,13.18
2022-11-20T06:56:00.531Z,11.50
2022-11-20T07:01:04.558Z,12.85
2022-11-20T07:06:06.999Z,16.20
2022-11-20T07:11:09.381Z,13.77
2022-11-20T07:16:11.208Z,20.45
2022-11-20T07:21:12.876Z,20.85
2022-11-20T07:26:14.583Z,20.75
2022-11-20T07:31:19.387Z,21.40
2022-11-20T07:36:21.368Z,20.73
2022-11-20T07:41:23.120Z,13.57
2022-11-20T07:46:24.771Z,17.30
2022-11-20T07:51:27.023Z,14.93
2022-11-20T07:56:28.722Z,13.90
2022-11-20T08:01:30.507Z,12.65
2022-11-20T08:06:32.220Z,16.27
2022-11-20T08:11:52.559Z,19.90
2022-11-20T08:16:54.351Z,18.42
2022-11-20T08:21:56.569Z,19.33
2022-11-20T08:27:00.115Z,16.83
2022-11-20T08:32:01.817Z,18.42
2022-11-20T08:37:04.116Z,20.88
2022-11-20T08:42:09.241Z,22.85
2022-11-20T08:47:10.948Z,25.33
2022-11-20T08:52:12.623Z,27.02
2022-11-20T08:57:14.265Z,28.10
2022-11-20T09:02:16.365Z,22.52
2022-11-20T09:07:18.112Z,19.27
2022-11-20T09:12:19.984Z,23.75
2022-11-20T09:17:21.697Z,23.98
2022-11-20T09:22:23.346Z,25.40
2022-11-20T09:27:25.118Z,23.65
2022-11-20T09:32:26.909Z,25.10
2022-11-20T09:37:28.766Z,23.85
2022-11-20T09:42:36.141Z,23.05
2022-11-20T09:48:21.186Z,24.00
2022-11-20T09:53:36.675Z,23.88
2022-11-20T09:58:44.050Z,21.20
2022-11-20T10:04:07.314Z,19.95
2022-11-20T10:09:31.974Z,24.83
2022-11-20T10:14:57.886Z,20.92
2022-11-20T10:20:21.353Z,18.98
2022-11-20T10:25:34.110Z,18.88
2022-11-20T10:30:41.712Z,15.63
2022-11-20T10:35:46.209Z,19.60
2022-11-20T10:40:53.513Z,19.05
2022-11-20T10:46:10.100Z,18.25
2022-11-20T10:51:30.100Z,17.80
2022-11-20T10:56:53.719Z,16.92
2022-11-20T11:01:55.368Z,15.50
2022-11-20T11:07:20.820Z,14.80
2022-11-20T11:12:25.544Z,17.35
2022-11-20T11:17:30.347Z,14.70
2022-11-20T11:22:34.386Z,12.43
2022-11-20T11:27:47.139Z,10.95
2022-11-20T11:32:49.047Z,9.65
2022-11-20T11:37:51.999Z,9.85
2022-11-20T11:43:00.333Z,11.45
2022-11-20T11:48:04.267Z,10.75
2022-11-20T11:53:14.420Z,12.02
2022-11-20T11:58:34.972Z,9.10
2022-11-20T12:03:38.852Z,12.40
2022-11-20T12:08:47.936Z,11.80
2022-11-20T12:14:02.707Z,11.95
2022-11-20T12:19:09.333Z,12.98
2022-11-20T12:24:30.644Z,9.88
2022-11-20T12:30:03.341Z,9.20
2022-11-20T12:35:23.434Z,9.13
2022-11-20T12:40:31.044Z,10.43
2022-11-20T12:45:41.589Z,10.32
2022-11-20T12:51:14.467Z,9.25
2022-11-20T12:56:29.172Z,8.95
2022-11-20T13:01:53.028Z,12.02
2022-11-20T13:06:55.429Z,9.48
2022-11-20T13:12:12.149Z,11.73
2022-11-20T13:17:39.170Z,9.82
2022-11-20T13:23:00.950Z,8.25
2022-11-20T13:28:22.485Z,8.57
2022-11-20T13:33:35.473Z,7.57
2022-11-20T13:39:07.358Z,7.80
2022-11-20T13:44:16.523Z,9.07
2022-11-20T13:49:32.295Z,8.45
2022-11-20T13:54:55.763Z,8.82
2022-11-20T14:00:14.667Z,8.18
2022-11-20T14:05:22.139Z,9.85
2022-11-20T14:10:33.110Z,8.18
2022-11-20T14:15:39.251Z,8.70
2022-11-20T14:20:44.213Z,8.77
2022-11-20T14:25:46.214Z,13.07
2022-11-20T14:30:52.142Z,11.20
2022-11-20T14:35:56.234Z,9.82
2022-11-20T14:41:20.062Z,12.48
2022-11-20T14:46:22.079Z,12.23
2022-11-20T14:51:31.299Z,12.60
2022-11-20T14:56:32.935Z,11.88
2022-11-20T15:01:35.047Z,12.10
2022-11-20T15:06:37.230Z,11.80
2022-11-20T15:11:38.854Z,14.85
2022-11-20T15:16:40.685Z,10.88
2022-11-20T15:21:42.328Z,9.15
2022-11-20T15:26:44.613Z,14.57
2022-11-20T15:31:46.500Z,12.68
2022-11-20T15:36:48.159Z,11.57
2022-11-20T15:41:49.834Z,11.75
2022-11-20T15:46:51.702Z,15.02
2022-11-20T15:51:54.916Z,14.60
2022-11-20T15:56:56.540Z,13.48
2022-11-20T16:01:58.335Z,12.80
2022-11-20T16:07:00.155Z,13.23
2022-11-20T16:12:01.941Z,13.20
2022-11-20T16:17:08.552Z,11.32
2022-11-20T16:22:12.089Z,12.10
2022-11-20T16:27:13.778Z,11.45
2022-11-20T16:32:15.416Z,12.10
2022-11-20T16:37:17.060Z,17.38
2022-11-20T16:42:18.783Z,13.15
2022-11-20T16:47:20.435Z,14.13
2022-11-20T16:52:26.530Z,14.25
2022-11-20T16:57:29.795Z,21.48
2022-11-20T17:02:33.787Z,10.68
2022-11-20T17:07:35.494Z,12.27
2022-11-20T17:12:37.142Z,11.13
2022-11-20T17:17:38.787Z,12.02
2022-11-20T17:22:42.883Z,31.70
2022-11-20T17:27:44.562Z,13.98
2022-11-20T17:32:49.054Z,14.73
2022-11-20T17:37:51.803Z,14.55
2022-11-20T17:42:53.434Z,15.50
2022-11-20T17:47:55.136Z,8.55
2022-11-20T17:52:56.845Z,11.52
2022-11-20T17:58:03.128Z,15.98
2022-11-20T18:03:04.808Z,10.85
2022-11-20T18:08:06.579Z,15.35
2022-11-20T18:13:08.264Z,12.55
2022-11-20T18:18:10.124Z,14.85
2022-11-20T18:23:11.777Z,12.85
2022-11-20T18:28:13.461Z,15.60
2022-11-20T18:33:15.146Z,19.35
2022-11-20T18:38:16.780Z,15.85
2022-11-20T18:43:39.064Z,17.67
2022-11-20T18:48:40.835Z,18.52
2022-11-20T18:53:47.092Z,20.27
2022-11-20T18:58:49.532Z,14.77
2022-11-20T19:03:51.174Z,15.25
2022-11-20T19:08:53.339Z,17.52
2022-11-20T19:13:55.334Z,15.65
2022-11-20T19:19:03.217Z,20.90
2022-11-20T19:24:05.396Z,14.38
2022-11-20T19:29:07.346Z,14.48
2022-11-20T19:34:09.269Z,15.93
2022-11-20T19:39:11.571Z,16.73
2022-11-20T19:44:15.195Z,19.50
2022-11-20T19:49:22.853Z,23.95
2022-11-20T19:54:25.084Z,23.02
2022-11-20T19:59:30.620Z,21.25
2022-11-20T20:04:32.399Z,23.60
2022-11-20T20:09:35.016Z,24.63
2022-11-20T20:14:36.793Z,28.38
2022-11-20T20:19:38.496Z,24.63
2022-11-20T20:24:40.256Z,26.60
2022-11-20T20:29:42.014Z,25.23
2022-11-20T20:34:43.753Z,27.08
2022-11-20T20:39:45.626Z,26.17
2022-11-20T20:45:05.883Z,27.80
2022-11-20T20:50:10.589Z,23.30
2022-11-20T20:55:12.387Z,27.92
2022-11-20T21:00:14.663Z,28.35
2022-11-20T21:05:16.527Z,27.23
2022-11-20T21:10:23.504Z,22.00
2022-11-20T21:15:25.497Z,31.88
2022-11-20T21:20:45.446Z,23.08
2022-11-20T21:25:47.108Z,28.35
2022-11-20T21:30:49.041Z,24.17
2022-11-20T21:35:50.706Z,27.15
2022-11-20T21:40:52.441Z,28.67
2022-11-20T21:45:56.618Z,28.65
2022-11-20T21:51:06.967Z,29.10
2022-11-20T21:56:10.399Z,26.67
2022-11-20T22:01:20.874Z,25.45
2022-11-20T22:06:23.537Z,25.55
2022-11-20T22:11:25.172Z,24.15
2022-11-20T22:16:27.062Z,26.20
2022-11-20T22:21:30.193Z,24.02
2022-11-20T22:26:39.872Z,28.80
2022-11-20T22:31:42.568Z,27.90
2022-11-20T22:36:44.673Z,25.10
2022-11-20T22:41:46.333Z,29.23
2022-11-20T22:46:47.949Z,31.00
2022-11-20T22:51:49.591Z,31.33
2022-11-20T22:56:51.243Z,33.55
2022-11-20T23:01:53.110Z,31.88
2022-11-20T23:06:54.743Z,39.50
2022-11-20T23:11:56.360Z,35.80
2022-11-20T23:16:58.042Z,38.08
2022-11-20T23:21:59.686Z,43.33
2022-11-20T23:27:01.323Z,42.22
2022-11-20T23:32:02.937Z,34.50
2022-11-20T23:37:04.564Z,49.25
2022-11-20T23:42:06.235Z,39.50
2022-11-20T23:47:07.834Z,45.22
2022-11-20T23:52:09.514Z,43.75
2022-11-20T23:57:11.167Z,50.88
